createdAt,value
2023-02-19T00:00:02.018Z,73.84
2023-02-19T00:02:30.505Z,73.46
2023-02-19T00:04:59.858Z,72.95
2023-02-19T00:07:28.284Z,72.48
2023-02-19T00:09:56.726Z,72.13
2023-02-19T00:12:24.831Z,71.81
2023-02-19T00:14:52.903Z,71.69
2023-02-19T00:17:20.980Z,71.44
2023-02-19T00:19:48.991Z,71.56
2023-02-19T00:22:17.265Z,71.51
2023-02-19T00:24:46.489Z,71.16
2023-02-19T00:27:16.380Z,71.01
2023-02-19T00:29:45.175Z,71.19
2023-02-19T00:32:13.474Z,71.05
2023-02-19T00:34:41.782Z,70.88
2023-02-19T00:37:10.058Z,70.78
2023-02-19T00:39:38.593Z,70.78
2023-02-19T00:42:06.816Z,70.54
2023-02-19T00:44:35.315Z,70.30
2023-02-19T00:47:03.754Z,70.10
2023-02-19T00:49:32.304Z,69.84
2023-02-19T00:52:00.758Z,69.59
2023-02-19T00:54:29.030Z,69.25
2023-02-19T00:56:57.305Z,69.19
2023-02-19T00:59:25.679Z,69.26
2023-02-19T01:01:53.955Z,69.25
2023-02-19T01:04:22.111Z,69.34
2023-02-19T01:06:50.377Z,69.37
2023-02-19T01:09:18.586Z,69.50
2023-02-19T01:11:46.712Z,69.44
2023-02-19T01:14:15.001Z,69.50
2023-02-19T01:16:43.238Z,69.53
2023-02-19T01:19:13.143Z,69.44
2023-02-19T01:21:42.013Z,69.61
2023-02-19T01:24:11.269Z,69.59
2023-02-19T01:26:43.512Z,69.49
2023-02-19T01:29:11.760Z,69.56
2023-02-19T01:31:42.401Z,69.63
2023-02-19T01:34:12.966Z,69.47
2023-02-19T01:36:44.371Z,69.59
2023-02-19T01:39:12.797Z,69.53
2023-02-19T01:41:47.765Z,69.54
2023-02-19T01:44:19.495Z,69.67
2023-02-19T01:46:52.813Z,69.57
2023-02-19T01:49:38.566Z,69.69
2023-02-19T01:52:32.810Z,69.72
2023-02-19T01:55:11.123Z,69.93
2023-02-19T01:57:45.333Z,70.10
2023-02-19T02:00:16.918Z,70.10
2023-02-19T02:02:54.892Z,70.33
2023-02-19T02:05:37.927Z,70.44
2023-02-19T02:08:25.210Z,70.44
2023-02-19T02:10:55.311Z,70.47
2023-02-19T02:13:26.446Z,70.58
2023-02-19T02:16:08.439Z,70.64
2023-02-19T02:19:06.986Z,70.76
2023-02-19T02:21:56.669Z,70.74
2023-02-19T02:25:13.071Z,70.64
2023-02-19T02:27:50.466Z,70.55
2023-02-19T02:30:33.671Z,70.56
2023-02-19T02:33:11.702Z,70.69
2023-02-19T02:35:46.430Z,70.71
2023-02-19T02:38:18.191Z,70.63
2023-02-19T02:40:47.799Z,71.16
2023-02-19T02:43:16.609Z,71.23
2023-02-19T02:45:45.092Z,70.82
2023-02-19T02:48:21.235Z,71.06
2023-02-19T02:50:58.375Z,71.16
2023-02-19T02:53:52.300Z,71.03
2023-02-19T02:56:25.376Z,71.44
2023-02-19T02:58:56.831Z,71.87
2023-02-19T03:01:52.270Z,71.45
2023-02-19T03:04:31.072Z,71.62
2023-02-19T03:07:04.106Z,71.87
2023-02-19T03:09:40.773Z,71.57
2023-02-19T03:12:33.780Z,70.17
2023-02-19T03:15:28.381Z,70.37
2023-02-19T03:18:36.905Z,69.73
2023-02-19T03:21:08.886Z,69.88
2023-02-19T03:23:58.958Z,70.45
2023-02-19T03:26:28.562Z,72.52
2023-02-19T03:29:17.338Z,73.14
2023-02-19T03:31:49.371Z,72.89
2023-02-19T03:34:23.305Z,72.25
2023-02-19T03:37:12.410Z,71.15
2023-02-19T03:39:46.997Z,71.50
2023-02-19T03:42:35.740Z,71.40
2023-02-19T03:45:11.172Z,71.89
2023-02-19T03:47:58.892Z,70.74
2023-02-19T03:50:55.956Z,71.94
2023-02-19T03:53:30.070Z,73.39
2023-02-19T03:56:11.157Z,74.71
2023-02-19T03:58:47.935Z,73.96
2023-02-19T04:01:30.651Z,73.60
2023-02-19T04:04:09.478Z,74.70
2023-02-19T04:06:41.659Z,74.85
2023-02-19T04:09:14.687Z,74.62
2023-02-19T04:11:44.557Z,73.84
2023-02-19T04:14:35.763Z,72.47
2023-02-19T04:17:10.898Z,72.06
2023-02-19T04:19:42.713Z,71.91
2023-02-19T04:22:12.472Z,71.98
2023-02-19T04:24:49.079Z,70.68
2023-02-19T04:27:18.132Z,70.24
2023-02-19T04:29:46.517Z,70.46
2023-02-19T04:32:14.793Z,71.21
2023-02-19T04:34:43.068Z,72.21
2023-02-19T04:37:11.834Z,74.23
2023-02-19T04:39:39.826Z,74.97
2023-02-19T04:42:08.101Z,74.89
2023-02-19T04:44:36.476Z,73.78
2023-02-19T04:47:04.844Z,73.26
2023-02-19T04:49:33.023Z,72.91
2023-02-19T04:52:01.505Z,72.36
2023-02-19T04:54:39.825Z,71.90
2023-02-19T04:57:08.013Z,71.58
2023-02-19T04:59:38.934Z,71.42
2023-02-19T05:02:07.309Z,71.31
2023-02-19T05:04:35.527Z,71.27
2023-02-19T05:07:03.761Z,70.83
2023-02-19T05:09:31.990Z,70.65
2023-02-19T05:12:00.417Z,70.99
2023-02-19T05:14:28.705Z,71.95
2023-02-19T05:16:57.182Z,75.11
2023-02-19T05:19:25.284Z,77.01
2023-02-19T05:21:53.430Z,79.30
2023-02-19T05:24:22.110Z,79.44
2023-02-19T05:26:51.294Z,78.67
2023-02-19T05:29:21.826Z,78.63
2023-02-19T05:31:50.059Z,78.63
2023-02-19T05:34:18.504Z,77.97
2023-02-19T05:36:46.780Z,77.80
2023-02-19T05:39:14.891Z,77.19
2023-02-19T05:41:43.323Z,76.74
2023-02-19T05:44:11.923Z,76.27
2023-02-19T05:46:40.200Z,75.89
2023-02-19T05:49:08.641Z,75.56
2023-02-19T05:51:37.064Z,75.15
2023-02-19T05:54:05.327Z,74.64
2023-02-19T05:56:38.562Z,73.95
2023-02-19T05:59:21.551Z,73.47
2023-02-19T06:01:54.735Z,72.89
2023-02-19T06:04:23.634Z,72.41
2023-02-19T06:06:51.914Z,72.00
2023-02-19T06:09:20.021Z,71.72
2023-02-19T06:11:48.568Z,70.68
2023-02-19T06:14:16.838Z,69.72
2023-02-19T06:16:45.118Z,69.11
2023-02-19T06:19:13.235Z,68.47
2023-02-19T06:21:49.762Z,68.08
2023-02-19T06:24:17.992Z,67.58
2023-02-19T06:26:46.690Z,67.59
2023-02-19T06:29:14.836Z,66.24
2023-02-19T06:31:46.159Z,65.42
2023-02-19T06:34:17.302Z,65.63
2023-02-19T06:36:45.560Z,65.03
2023-02-19T06:39:23.813Z,63.88
2023-02-19T06:41:54.817Z,63.44
2023-02-19T06:44:25.964Z,63.26
2023-02-19T06:46:57.310Z,62.80
2023-02-19T06:49:25.918Z,62.89
2023-02-19T06:51:54.284Z,62.67
2023-02-19T06:54:25.835Z,62.83
2023-02-19T06:56:54.005Z,62.96
2023-02-19T06:59:22.586Z,62.60
2023-02-19T07:01:50.863Z,62.05
2023-02-19T07:04:19.504Z,61.79
2023-02-19T07:06:47.932Z,62.30
2023-02-19T07:09:16.068Z,62.13
2023-02-19T07:11:46.843Z,61.96
2023-02-19T07:14:20.632Z,62.23
2023-02-19T07:16:48.848Z,62.12
2023-02-19T07:19:17.284Z,61.93
2023-02-19T07:21:45.487Z,61.82
2023-02-19T07:24:13.686Z,60.92
2023-02-19T07:26:45.094Z,60.18
2023-02-19T07:29:13.588Z,60.15
2023-02-19T07:31:47.727Z,59.99
2023-02-19T07:34:15.966Z,60.28
2023-02-19T07:36:46.237Z,60.17
2023-02-19T07:39:15.945Z,60.41
2023-02-19T07:41:44.078Z,59.59
2023-02-19T07:44:27.101Z,59.28
2023-02-19T07:46:58.144Z,59.08
2023-02-19T07:49:30.718Z,57.36
2023-02-19T07:51:58.997Z,56.07
2023-02-19T07:54:27.368Z,54.87
2023-02-19T07:56:56.034Z,52.56
2023-02-19T07:59:24.131Z,49.86
2023-02-19T08:02:11.154Z,45.02
2023-02-19T08:04:39.738Z,41.84
2023-02-19T08:07:07.891Z,39.19
2023-02-19T08:09:36.183Z,37.45
2023-02-19T08:12:22.957Z,35.88
2023-02-19T08:14:51.046Z,34.99
2023-02-19T08:17:19.261Z,33.78
2023-02-19T08:19:47.347Z,33.51
2023-02-19T08:22:16.506Z,32.01
2023-02-19T08:24:45.234Z,30.34
2023-02-19T08:27:13.808Z,29.30
2023-02-19T08:29:42.089Z,27.36
2023-02-19T08:32:10.504Z,25.45
2023-02-19T08:34:38.742Z,25.88
2023-02-19T08:37:06.715Z,23.72
2023-02-19T08:39:34.882Z,22.70
2023-02-19T08:42:03.329Z,19.14
2023-02-19T08:44:33.426Z,20.31
2023-02-19T08:47:02.581Z,16.32
2023-02-19T08:49:30.909Z,15.78
2023-02-19T08:51:59.238Z,15.56
2023-02-19T08:54:27.165Z,16.17
2023-02-19T08:56:55.219Z,17.23
2023-02-19T08:59:24.008Z,19.04
2023-02-19T09:01:53.377Z,19.32
2023-02-19T09:04:21.505Z,21.70
2023-02-19T09:06:49.710Z,22.43
2023-02-19T09:09:18.004Z,23.21
2023-02-19T09:11:49.061Z,24.64
2023-02-19T09:14:17.798Z,26.62
2023-02-19T09:16:48.154Z,27.65
2023-02-19T09:19:16.525Z,27.27
2023-02-19T09:21:45.005Z,27.29
2023-02-19T09:24:13.599Z,27.79
2023-02-19T09:26:41.769Z,27.67
2023-02-19T09:29:10.046Z,25.97
2023-02-19T09:31:38.457Z,25.01
2023-02-19T09:34:06.767Z,24.66
2023-02-19T09:36:34.871Z,24.64
2023-02-19T09:39:04.695Z,24.87
2023-02-19T09:41:37.100Z,24.06
2023-02-19T09:44:09.733Z,23.69
2023-02-19T09:46:53.177Z,22.62
2023-02-19T09:49:27.197Z,22.21
2023-02-19T09:51:58.850Z,21.82
2023-02-19T09:54:30.714Z,22.08
2023-02-19T09:57:02.286Z,22.48
2023-02-19T09:59:48.243Z,22.84
2023-02-19T10:02:22.268Z,24.35
2023-02-19T10:04:52.285Z,25.28
2023-02-19T10:07:24.193Z,26.44
2023-02-19T10:10:21.490Z,27.48
2023-02-19T10:12:55.995Z,29.37
2023-02-19T10:15:27.367Z,30.98
2023-02-19T10:17:55.795Z,31.58
2023-02-19T10:20:27.948Z,32.22
2023-02-19T10:23:06.502Z,31.94
2023-02-19T10:25:35.732Z,32.50
2023-02-19T10:28:05.140Z,31.83
2023-02-19T10:30:36.076Z,32.53
2023-02-19T10:33:12.710Z,33.81
2023-02-19T10:36:03.656Z,34.85
2023-02-19T10:38:35.406Z,35.39
2023-02-19T10:41:18.536Z,35.72
2023-02-19T10:44:13.722Z,36.21
2023-02-19T10:46:48.978Z,35.91
2023-02-19T10:49:30.881Z,36.23
2023-02-19T10:52:17.746Z,36.81
2023-02-19T10:54:50.472Z,37.55
2023-02-19T10:57:18.649Z,38.28
2023-02-19T11:00:10.987Z,39.17
2023-02-19T11:02:39.075Z,39.71
2023-02-19T11:05:16.410Z,39.67
2023-02-19T11:07:54.689Z,40.36
2023-02-19T11:10:30.387Z,41.35
2023-02-19T11:13:02.410Z,41.48
2023-02-19T11:15:36.117Z,41.81
2023-02-19T11:18:08.148Z,42.37
2023-02-19T11:20:36.187Z,42.98
2023-02-19T11:23:15.470Z,43.29
2023-02-19T11:25:48.826Z,43.80
2023-02-19T11:28:16.922Z,43.66
2023-02-19T11:30:47.214Z,43.71
2023-02-19T11:33:24.807Z,43.89
2023-02-19T11:36:11.956Z,44.17
2023-02-19T11:38:40.032Z,43.77
2023-02-19T11:41:49.731Z,43.32
2023-02-19T11:44:35.479Z,43.32
2023-02-19T11:47:32.520Z,43.25
2023-02-19T11:50:15.955Z,43.38
2023-02-19T11:53:28.885Z,43.07
2023-02-19T11:56:09.166Z,43.04
2023-02-19T11:59:01.078Z,43.33
2023-02-19T12:01:51.395Z,43.74
2023-02-19T12:04:38.168Z,43.65
2023-02-19T12:07:16.899Z,44.06
2023-02-19T12:09:55.265Z,44.30
2023-02-19T12:12:52.379Z,44.45
2023-02-19T12:15:44.089Z,42.81
2023-02-19T12:18:30.486Z,42.32
2023-02-19T12:21:12.850Z,41.67
2023-02-19T12:23:59.289Z,42.46
2023-02-19T12:26:59.442Z,42.55
2023-02-19T12:29:30.259Z,43.14
2023-02-19T12:32:21.668Z,43.49
2023-02-19T12:34:52.402Z,44.18
2023-02-19T12:37:41.672Z,44.52
2023-02-19T12:40:33.715Z,44.70
2023-02-19T12:43:19.636Z,44.95
2023-02-19T12:46:00.381Z,45.29
2023-02-19T12:48:31.956Z,45.14
2023-02-19T12:51:30.454Z,44.96
2023-02-19T12:54:06.874Z,45.13
2023-02-19T12:56:42.284Z,45.40
2023-02-19T12:59:23.705Z,45.87
2023-02-19T13:01:58.301Z,46.67
2023-02-19T13:04:37.473Z,48.30
2023-02-19T13:07:21.818Z,49.21
2023-02-19T13:10:00.853Z,49.54
2023-02-19T13:12:30.775Z,50.64
2023-02-19T13:15:09.973Z,50.84
2023-02-19T13:17:41.699Z,51.98
2023-02-19T13:20:19.009Z,53.01
2023-02-19T13:23:20.295Z,54.79
2023-02-19T13:26:08.335Z,56.17
2023-02-19T13:29:20.245Z,56.42
2023-02-19T13:32:36.512Z,56.56
2023-02-19T13:35:11.633Z,58.46
2023-02-19T13:37:40.900Z,57.42
2023-02-19T13:40:43.152Z,57.60
2023-02-19T13:43:43.063Z,57.64
2023-02-19T13:46:16.587Z,57.14
2023-02-19T13:48:45.597Z,57.03
2023-02-19T13:51:21.616Z,57.13
2023-02-19T13:53:56.047Z,57.54
2023-02-19T13:56:31.460Z,57.78
2023-02-19T13:59:23.523Z,57.59
2023-02-19T14:01:52.215Z,57.83
2023-02-19T14:04:22.877Z,57.55
2023-02-19T14:07:03.605Z,58.30
2023-02-19T14:09:37.838Z,58.86
2023-02-19T14:12:18.087Z,58.83
2023-02-19T14:14:54.297Z,58.73
2023-02-19T14:17:45.892Z,59.63
2023-02-19T14:20:17.115Z,58.64
2023-02-19T14:22:50.131Z,59.52
2023-02-19T14:25:27.733Z,58.92
2023-02-19T14:28:24.256Z,58.84
2023-02-19T14:30:53.652Z,57.92
2023-02-19T14:33:32.452Z,58.37
2023-02-19T14:36:07.399Z,58.30
2023-02-19T14:38:47.140Z,58.35
2023-02-19T14:41:17.329Z,58.03
2023-02-19T14:43:49.043Z,58.56
2023-02-19T14:46:38.038Z,58.57
2023-02-19T14:49:18.138Z,58.94
2023-02-19T14:51:51.431Z,59.04
2023-02-19T14:54:38.143Z,59.14
2023-02-19T14:57:13.774Z,58.89
2023-02-19T14:59:53.578Z,58.82
2023-02-19T15:02:24.109Z,58.59
2023-02-19T15:04:53.696Z,58.60
2023-02-19T15:07:25.435Z,58.43
2023-02-19T15:10:03.677Z,58.58
2023-02-19T15:12:47.690Z,58.55
2023-02-19T15:15:22.212Z,58.97
2023-02-19T15:17:52.739Z,58.81
2023-02-19T15:20:24.705Z,58.61
2023-02-19T15:22:55.096Z,58.70
2023-02-19T15:25:27.110Z,58.64
2023-02-19T15:27:55.427Z,58.75
2023-02-19T15:30:29.646Z,58.22
2023-02-19T15:33:00.156Z,58.01
2023-02-19T15:35:30.671Z,57.83
2023-02-19T15:37:58.936Z,57.78
2023-02-19T15:40:32.561Z,57.58
2023-02-19T15:43:01.434Z,58.80
2023-02-19T15:45:37.891Z,60.58
2023-02-19T15:48:18.663Z,62.85
2023-02-19T15:50:52.256Z,65.37
2023-02-19T15:53:29.805Z,66.35
2023-02-19T15:56:09.815Z,66.67
2023-02-19T15:58:38.178Z,67.57
2023-02-19T16:01:15.420Z,68.15
2023-02-19T16:03:43.746Z,69.34
2023-02-19T16:06:15.141Z,69.94
2023-02-19T16:09:06.931Z,69.48
2023-02-19T16:11:59.089Z,69.15
2023-02-19T16:14:27.129Z,69.37
2023-02-19T16:16:57.158Z,68.86
2023-02-19T16:19:28.673Z,68.30
2023-02-19T16:21:58.454Z,70.06
2023-02-19T16:24:31.309Z,68.85
2023-02-19T16:27:04.212Z,69.13
2023-02-19T16:29:36.064Z,71.56
2023-02-19T16:32:07.541Z,72.70
2023-02-19T16:34:43.400Z,72.40
2023-02-19T16:37:41.199Z,72.60
2023-02-19T16:40:09.343Z,72.77
2023-02-19T16:43:06.294Z,73.20
2023-02-19T16:45:34.313Z,74.14
2023-02-19T16:48:03.748Z,74.30
2023-02-19T16:50:31.981Z,73.38
2023-02-19T16:53:02.348Z,74.00
2023-02-19T16:55:32.658Z,73.52
2023-02-19T16:58:01.302Z,72.85
2023-02-19T17:00:31.845Z,73.52
2023-02-19T17:03:08.945Z,74.85
2023-02-19T17:05:39.323Z,74.49
2023-02-19T17:08:46.216Z,74.08
2023-02-19T17:11:16.916Z,73.65
2023-02-19T17:13:46.805Z,74.51
2023-02-19T17:16:27.346Z,75.84
2023-02-19T17:18:56.194Z,76.87
2023-02-19T17:21:30.273Z,77.29
2023-02-19T17:23:58.608Z,77.22
2023-02-19T17:26:31.550Z,77.34
2023-02-19T17:29:02.012Z,77.42
2023-02-19T17:31:30.588Z,77.03
2023-02-19T17:34:02.105Z,76.15
2023-02-19T17:36:32.256Z,76.59
2023-02-19T17:39:03.158Z,75.17
2023-02-19T17:41:32.244Z,74.86
2023-02-19T17:44:00.734Z,75.11
2023-02-19T17:46:28.863Z,74.82
2023-02-19T17:49:07.849Z,74.32
2023-02-19T17:51:36.114Z,74.43
2023-02-19T17:54:05.845Z,74.67
2023-02-19T17:56:36.161Z,73.96
2023-02-19T17:59:04.520Z,73.71
2023-02-19T18:01:33.153Z,72.54
2023-02-19T18:04:01.748Z,72.49
2023-02-19T18:06:30.486Z,72.74
2023-02-19T18:08:58.857Z,73.05
2023-02-19T18:11:27.250Z,72.40
2023-02-19T18:13:55.832Z,71.95
2023-02-19T18:16:27.405Z,72.30
2023-02-19T18:18:58.425Z,72.24
2023-02-19T18:21:26.986Z,72.25
2023-02-19T18:23:55.277Z,73.50
2023-02-19T18:26:33.493Z,74.50
2023-02-19T18:29:01.762Z,74.92
2023-02-19T18:31:32.892Z,74.98
2023-02-19T18:34:01.185Z,74.90
2023-02-19T18:36:33.049Z,74.56
2023-02-19T18:39:04.399Z,74.94
2023-02-19T18:41:32.568Z,75.12
2023-02-19T18:44:00.954Z,73.32
2023-02-19T18:46:30.902Z,70.91
2023-02-19T18:49:02.217Z,69.75
2023-02-19T18:51:31.006Z,70.06
2023-02-19T18:54:01.776Z,70.55
2023-02-19T18:56:31.141Z,70.60
2023-02-19T18:59:00.539Z,70.97
2023-02-19T19:01:31.694Z,71.58
2023-02-19T19:04:01.905Z,72.77
2023-02-19T19:06:30.368Z,73.05
2023-02-19T19:08:58.686Z,73.74
2023-02-19T19:11:26.985Z,74.51
2023-02-19T19:13:55.515Z,75.19
2023-02-19T19:16:28.742Z,75.60
2023-02-19T19:18:57.511Z,75.94
2023-02-19T19:21:25.936Z,76.18
2023-02-19T19:23:56.940Z,76.69
2023-02-19T19:26:25.143Z,77.11
2023-02-19T19:28:53.587Z,77.55
2023-02-19T19:31:23.025Z,78.06
2023-02-19T19:33:51.384Z,78.76
2023-02-19T19:36:23.297Z,79.33
2023-02-19T19:38:51.715Z,79.75
2023-02-19T19:41:20.736Z,80.35
2023-02-19T19:43:48.785Z,80.85
2023-02-19T19:46:20.003Z,81.05
2023-02-19T19:48:50.007Z,81.18
2023-02-19T19:51:18.680Z,80.88
2023-02-19T19:53:48.246Z,80.61
2023-02-19T19:56:18.168Z,80.09
2023-02-19T19:58:48.147Z,80.23
2023-02-19T20:01:21.217Z,79.17
2023-02-19T20:03:51.346Z,77.46
2023-02-19T20:06:31.130Z,76.99
2023-02-19T20:09:00.159Z,78.18
2023-02-19T20:11:28.703Z,78.38
2023-02-19T20:13:57.087Z,77.97
2023-02-19T20:16:29.192Z,77.50
2023-02-19T20:18:57.429Z,76.64
2023-02-19T20:21:26.420Z,78.19
2023-02-19T20:23:54.695Z,77.48
2023-02-19T20:26:27.899Z,77.46
2023-02-19T20:28:56.515Z,79.30
2023-02-19T20:31:25.347Z,79.25
2023-02-19T20:33:53.945Z,78.64
2023-02-19T20:36:22.265Z,78.92
2023-02-19T20:38:50.608Z,78.98
2023-02-19T20:41:19.185Z,78.91
2023-02-19T20:43:47.774Z,79.11
2023-02-19T20:46:16.107Z,78.58
2023-02-19T20:48:44.929Z,79.88
2023-02-19T20:51:13.133Z,79.69
2023-02-19T20:53:42.430Z,78.68
2023-02-19T20:56:11.689Z,78.48
2023-02-19T20:58:43.469Z,79.17
2023-02-19T21:01:12.248Z,81.15
2023-02-19T21:03:40.475Z,82.65
2023-02-19T21:06:09.047Z,80.83
2023-02-19T21:08:37.388Z,79.54
2023-02-19T21:11:05.881Z,80.11
2023-02-19T21:13:36.734Z,80.96
2023-02-19T21:16:05.316Z,80.76
2023-02-19T21:18:33.576Z,81.84
2023-02-19T21:21:01.808Z,81.71
2023-02-19T21:23:30.853Z,83.39
2023-02-19T21:26:01.685Z,83.47
2023-02-19T21:28:29.960Z,83.52
2023-02-19T21:30:58.333Z,84.02
2023-02-19T21:33:26.573Z,84.27
2023-02-19T21:35:54.709Z,84.69
2023-02-19T21:38:23.123Z,84.69
2023-02-19T21:40:51.856Z,83.76
2023-02-19T21:43:33.238Z,83.24
2023-02-19T21:46:04.295Z,82.77
2023-02-19T21:48:35.728Z,82.57
2023-02-19T21:51:07.075Z,81.67
2023-02-19T21:53:35.975Z,81.44
2023-02-19T21:56:04.653Z,81.62
2023-02-19T21:58:37.092Z,81.67
2023-02-19T22:01:05.650Z,81.81
2023-02-19T22:03:34.199Z,81.48
2023-02-19T22:06:02.672Z,80.85
2023-02-19T22:08:31.184Z,80.53
2023-02-19T22:11:00.429Z,80.53
2023-02-19T22:13:28.776Z,79.98
2023-02-19T22:15:56.916Z,80.20
2023-02-19T22:18:31.174Z,79.94
2023-02-19T22:21:08.969Z,79.27
2023-02-19T22:23:37.140Z,79.01
2023-02-19T22:26:05.420Z,78.66
2023-02-19T22:28:33.716Z,78.04
2023-02-19T22:31:01.871Z,78.01
2023-02-19T22:33:30.360Z,78.30
2023-02-19T22:35:58.434Z,78.34
2023-02-19T22:38:26.609Z,78.34
2023-02-19T22:40:54.644Z,78.73
2023-02-19T22:43:22.956Z,79.21
2023-02-19T22:45:50.987Z,79.63
2023-02-19T22:48:29.608Z,79.74
2023-02-19T22:50:58.997Z,79.93
2023-02-19T22:53:27.096Z,80.38
2023-02-19T22:55:55.182Z,80.86
2023-02-19T22:58:23.570Z,81.42
2023-02-19T23:00:52.073Z,81.33
2023-02-19T23:03:20.430Z,81.27
2023-02-19T23:05:48.805Z,81.32
2023-02-19T23:08:17.397Z,81.19
2023-02-19T23:10:45.777Z,80.81
2023-02-19T23:13:14.252Z,80.93
2023-02-19T23:15:42.365Z,81.16
2023-02-19T23:18:10.501Z,80.99
2023-02-19T23:20:38.554Z,81.12
2023-02-19T23:23:06.858Z,81.06
2023-02-19T23:25:35.149Z,80.94
2023-02-19T23:28:03.672Z,80.88
2023-02-19T23:30:32.238Z,81.19
2023-02-19T23:33:00.480Z,80.88
2023-02-19T23:35:32.233Z,81.03
2023-02-19T23:38:01.534Z,81.10
2023-02-19T23:40:29.434Z,81.12
2023-02-19T23:42:57.673Z,81.58
2023-02-19T23:45:26.009Z,81.88
2023-02-19T23:47:57.090Z,81.36
2023-02-19T23:50:25.984Z,81.14
2023-02-19T23:52:56.619Z,81.41
2023-02-19T23:55:28.184Z,80.70
2023-02-19T23:57:56.440Z,79.50
